Time;durP1;ratioP1;P1;durP2;ratioP2;P2;SDS_P1;SDS_P2;PMS_P1;PMS_P2;Temp;Humidity;BMP_temperature;BMP_pressure;BME280_temperature;BME280_humidity;BME280_pressure;Samples;Min_cycle;Max_cycle;Signal;HPM_P1;HPM_P2
2021/08/31 02:45:40;;;;;;;1.40;0.80;;;17.30;92.70;;;;;;5662391;24;20091;-82
2021/08/31 02:48:06;;;;;;;1.45;1.00;;;17.20;93.10;;;;;;4837449;29;20109;-80
2021/08/31 02:50:31;;;;;;;1.80;1.27;;;17.20;93.40;;;;;;4819428;29;20037;-80
2021/08/31 02:52:57;;;;;;;1.40;0.85;;;17.20;93.50;;;;;;4819738;29;20026;-81
2021/08/31 02:55:23;;;;;;;1.73;1.20;;;17.20;93.40;;;;;;4834420;29;20026;-82
2021/08/31 02:57:49;;;;;;;1.13;1.00;;;17.20;93.50;;;;;;4819186;29;20045;-82
2021/08/31 03:00:18;;;;;;;1.42;1.20;;;17.20;93.60;;;;;;4832057;29;20051;-81
2021/08/31 03:02:45;;;;;;;1.35;1.10;;;17.20;93.50;;;;;;4834598;29;20035;-82
2021/08/31 03:05:12;;;;;;;1.23;1.10;;;17.30;93.40;;;;;;4849576;29;20053;-80
2021/08/31 03:07:38;;;;;;;1.65;1.15;;;17.20;93.50;;;;;;4849996;29;20082;-79
2021/08/31 03:10:05;;;;;;;1.10;1.00;;;17.30;93.50;;;;;;4849538;29;20042;-80
2021/08/31 03:12:31;;;;;;;1.48;1.30;;;17.20;93.60;;;;;;4834479;29;20034;-82
2021/08/31 03:14:57;;;;;;;3.20;0.85;;;17.20;93.60;;;;;;4849462;29;20078;-82
2021/08/31 03:17:23;;;;;;;1.13;1.02;;;17.30;93.50;;;;;;4837085;29;20041;-81
2021/08/31 03:19:49;;;;;;;1.90;1.10;;;17.30;93.50;;;;;;4837078;29;20104;-82
2021/08/31 03:22:15;;;;;;;2.42;1.13;;;17.20;93.50;;;;;;4856386;29;20044;-82
2021/08/31 03:24:41;;;;;;;1.30;1.20;;;17.20;93.60;;;;;;4870818;29;20030;-82
2021/08/31 03:27:07;;;;;;;1.60;1.15;;;17.20;93.60;;;;;;4871157;29;20045;-81
2021/08/31 03:29:33;;;;;;;1.40;1.30;;;17.20;93.70;;;;;;4838166;29;20037;-81
2021/08/31 03:31:59;;;;;;;1.40;1.27;;;17.10;93.70;;;;;;4852252;29;20102;-81
2021/08/31 03:34:24;;;;;;;2.25;1.63;;;17.10;93.80;;;;;;4837690;29;20082;-81
2021/08/31 03:36:50;;;;;;;1.27;1.15;;;17.10;93.80;;;;;;4837246;29;20105;-81
2021/08/31 03:39:16;;;;;;;1.70;1.55;;;17.00;93.90;;;;;;4837448;29;20018;-81
2021/08/31 03:41:41;;;;;;;4.00;1.70;;;17.00;94.00;;;;;;4837253;29;20034;-81
2021/08/31 03:44:08;;;;;;;2.42;1.90;;;17.00;94.10;;;;;;4837274;29;20217;-81
2021/08/31 03:46:34;;;;;;;2.45;1.90;;;17.10;94.10;;;;;;4823413;29;20054;-81
2021/08/31 03:49:00;;;;;;;2.08;1.88;;;17.10;94.00;;;;;;4815913;29;20031;-81
2021/08/31 03:51:26;;;;;;;1.95;1.70;;;17.10;94.10;;;;;;4815684;29;20102;-81
2021/08/31 03:53:52;;;;;;;1.80;1.60;;;17.10;94.10;;;;;;4815701;29;20043;-81
2021/08/31 03:56:17;;;;;;;2.30;1.60;;;17.10;94.00;;;;;;4815547;29;20031;-81
2021/08/31 03:58:43;;;;;;;1.90;1.63;;;17.20;94.00;;;;;;4836484;29;20250;-81
2021/08/31 04:01:09;;;;;;;2.10;1.90;;;17.20;94.00;;;;;;4852230;29;20037;-81
2021/08/31 04:03:34;;;;;;;2.00;1.77;;;17.20;93.80;;;;;;4852311;29;20045;-81
2021/08/31 04:06:00;;;;;;;2.55;1.60;;;17.20;93.80;;;;;;4837136;29;20033;-81
2021/08/31 04:08:26;;;;;;;2.05;1.85;;;17.30;93.60;;;;;;4837820;29;20102;-81
2021/08/31 04:10:52;;;;;;;1.98;1.75;;;17.30;93.50;;;;;;4855818;29;20033;-81
2021/08/31 04:13:18;;;;;;;1.80;1.60;;;17.40;93.50;;;;;;4855997;29;20041;-82
2021/08/31 04:15:46;;;;;;;2.00;1.80;;;17.40;93.30;;;;;;4855190;29;20082;-81
2021/08/31 04:18:12;;;;;;;2.40;1.67;;;17.50;93.20;;;;;;4838848;29;20030;-81
2021/08/31 04:20:37;;;;;;;2.22;1.73;;;17.50;93.10;;;;;;4837538;29;20030;-81
2021/08/31 04:23:03;;;;;;;3.65;2.47;;;17.50;92.90;;;;;;4822471;29;20058;-81
2021/08/31 04:25:29;;;;;;;4.38;1.50;;;17.60;93.00;;;;;;4822761;29;20318;-81
2021/08/31 04:27:55;;;;;;;3.15;1.95;;;17.70;92.70;;;;;;4837359;29;20181;-81
2021/08/31 04:30:20;;;;;;;5.78;2.40;;;17.70;92.50;;;;;;4837301;29;20038;-81
2021/08/31 04:32:46;;;;;;;2.30;2.10;;;17.70;92.40;;;;;;4837131;29;20053;-81
2021/08/31 04:35:12;;;;;;;3.08;2.15;;;17.80;91.90;;;;;;4822234;29;20038;-81
2021/08/31 04:37:38;;;;;;;2.70;2.30;;;17.80;92.10;;;;;;4821593;29;20206;-81
2021/08/31 04:40:05;;;;;;;2.05;1.83;;;17.80;92.00;;;;;;4822170;29;20034;-81
2021/08/31 04:42:31;;;;;;;2.92;1.90;;;17.80;91.80;;;;;;4837243;29;20252;-81
2021/08/31 04:44:56;;;;;;;2.15;1.95;;;17.80;91.80;;;;;;4822131;29;20103;-82
2021/08/31 04:47:23;;;;;;;3.17;2.33;;;17.90;91.70;;;;;;4821515;29;20046;-81
2021/08/31 04:49:49;;;;;;;3.40;2.10;;;18.00;91.50;;;;;;4836968;29;20061;-81
2021/08/31 04:52:14;;;;;;;7.18;2.05;;;18.00;91.40;;;;;;4836917;29;20034;-81
2021/08/31 04:54:40;;;;;;;4.85;2.03;;;18.10;91.40;;;;;;4821955;29;20151;-81
2021/08/31 04:57:06;;;;;;;3.55;2.60;;;18.20;91.20;;;;;;4836538;29;20094;-81
2021/08/31 04:59:32;;;;;;;2.63;2.00;;;18.20;91.10;;;;;;4821582;29;20062;-81
2021/08/31 05:01:57;;;;;;;3.08;2.33;;;18.20;91.10;;;;;;4821193;29;20030;-81
2021/08/31 05:04:29;;;;;;;3.58;1.95;;;18.30;90.80;;;;;;4836119;29;20034;-81
2021/08/31 05:06:55;;;;;;;2.22;1.98;;;18.30;90.70;;;;;;4835908;29;20260;-81
2021/08/31 05:09:21;;;;;;;2.35;2.15;;;18.30;90.60;;;;;;4821448;29;20089;-81
2021/08/31 05:11:47;;;;;;;2.67;2.15;;;18.20;90.40;;;;;;4820846;29;20041;-81
2021/08/31 05:14:13;;;;;;;2.33;2.10;;;18.20;90.40;;;;;;4821069;29;20046;-81
2021/08/31 05:16:38;;;;;;;5.35;2.63;;;18.20;90.50;;;;;;4835413;29;20061;-81
2021/08/31 05:19:04;;;;;;;5.07;2.28;;;18.30;90.40;;;;;;4820908;29;20034;-81
2021/08/31 05:21:31;;;;;;;3.22;2.58;;;18.30;90.10;;;;;;4835078;29;20034;-82
2021/08/31 05:23:57;;;;;;;3.25;2.40;;;18.40;90.20;;;;;;4820769;29;20098;-79
2021/08/31 05:26:29;;;;;;;2.53;2.17;;;18.50;90.10;;;;;;4821405;29;20105;-81
2021/08/31 05:28:55;;;;;;;5.50;2.42;;;18.50;90.00;;;;;;4820436;29;20030;-81
2021/08/31 05:31:20;;;;;;;5.65;2.47;;;18.60;89.80;;;;;;4835529;29;20069;-81
2021/08/31 05:33:46;;;;;;;2.88;2.45;;;18.60;89.80;;;;;;4834534;29;20040;-81
2021/08/31 05:36:12;;;;;;;3.00;2.70;;;18.70;89.30;;;;;;4828312;29;20046;-81
2021/08/31 05:38:38;;;;;;;4.63;2.55;;;18.70;89.10;;;;;;4840834;29;20032;-82
2021/08/31 05:41:03;;;;;;;4.20;2.45;;;18.80;89.30;;;;;;4846180;29;20207;-82
2021/08/31 05:43:29;;;;;;;4.00;2.72;;;18.80;89.00;;;;;;4825864;29;20344;-81
2021/08/31 05:45:55;;;;;;;3.80;2.97;;;18.90;88.90;;;;;;4823599;29;20109;-81
2021/08/31 05:48:21;;;;;;;4.20;3.17;;;18.80;88.50;;;;;;4836214;29;20037;-81
2021/08/31 05:50:47;;;;;;;4.25;3.03;;;18.90;88.40;;;;;;4822635;29;20085;-82
2021/08/31 05:53:12;;;;;;;4.38;2.42;;;19.00;88.00;;;;;;4832166;29;20034;-81
2021/08/31 05:55:38;;;;;;;3.25;2.85;;;19.00;87.50;;;;;;4833403;29;20093;-82
2021/08/31 05:58:04;;;;;;;3.20;2.90;;;18.90;87.40;;;;;;4824116;29;20337;-81
2021/08/31 06:00:30;;;;;;;6.88;2.80;;;18.80;88.60;;;;;;4836874;29;20090;-82
2021/08/31 06:02:56;;;;;;;5.35;2.92;;;19.00;88.30;;;;;;4820619;29;20046;-81
2021/08/31 06:05:22;;;;;;;4.80;2.65;;;19.00;88.20;;;;;;4828619;29;20033;-82
2021/08/31 06:07:48;;;;;;;2.67;2.45;;;19.10;88.00;;;;;;4846139;29;20045;-81
2021/08/31 06:10:15;;;;;;;7.38;2.90;;;19.00;88.30;;;;;;4827611;29;20057;-82
2021/08/31 06:12:41;;;;;;;7.95;3.08;;;19.10;88.40;;;;;;4818755;29;20030;-82
2021/08/31 06:15:08;;;;;;;6.07;2.45;;;19.10;88.50;;;;;;4835857;29;20068;-81
2021/08/31 06:17:37;;;;;;;4.15;2.50;;;19.00;87.70;;;;;;4834806;29;20046;-82
2021/08/31 06:20:05;;;;;;;3.78;2.58;;;19.10;89.30;;;;;;4819663;29;20045;-81
2021/08/31 06:22:31;;;;;;;3.22;2.38;;;19.10;87.80;;;;;;4836878;29;20030;-81
2021/08/31 06:24:57;;;;;;;3.80;2.58;;;19.20;87.70;;;;;;4833130;29;20066;-81
2021/08/31 06:27:22;;;;;;;4.60;2.60;;;19.30;87.70;;;;;;4852979;29;20030;-81
2021/08/31 06:29:48;;;;;;;3.05;2.30;;;19.30;87.50;;;;;;4848776;29;20037;-81
2021/08/31 06:32:14;;;;;;;7.10;2.92;;;19.30;87.50;;;;;;4818393;29;20030;-82
2021/08/31 06:34:40;;;;;;;3.42;2.58;;;19.30;87.40;;;;;;4834665;29;20154;-82
2021/08/31 06:37:05;;;;;;;4.78;2.60;;;19.40;87.80;;;;;;4824193;29;20042;-81
2021/08/31 06:39:31;;;;;;;4.85;2.58;;;19.40;87.20;;;;;;4837123;29;20033;-81
2021/08/31 06:41:57;;;;;;;4.80;2.75;;;19.50;87.30;;;;;;4839500;29;20311;-82
2021/08/31 06:44:23;;;;;;;6.45;2.30;;;19.70;87.00;;;;;;4825774;29;20093;-81
2021/08/31 06:46:48;;;;;;;4.57;2.47;;;19.80;86.20;;;;;;4831226;29;20077;-81
2021/08/31 06:49:15;;;;;;;7.28;2.72;;;19.80;85.80;;;;;;4836621;29;20037;-81
2021/08/31 06:51:41;;;;;;;4.00;2.55;;;19.90;85.30;;;;;;4830486;29;20385;-81
2021/08/31 06:54:08;;;;;;;4.63;2.70;;;19.90;85.20;;;;;;4839898;29;20034;-81
2021/08/31 06:56:34;;;;;;;4.60;2.65;;;20.10;84.70;;;;;;4828235;29;20044;-81
2021/08/31 06:59:01;;;;;;;9.27;2.42;;;20.10;84.30;;;;;;4837572;29;20025;-81
2021/08/31 07:01:26;;;;;;;2.85;2.33;;;20.20;83.60;;;;;;4836846;29;20038;-81
2021/08/31 07:03:52;;;;;;;5.20;1.90;;;20.20;84.20;;;;;;4837178;29;20055;-81
2021/08/31 07:06:18;;;;;;;3.15;2.55;;;20.30;82.60;;;;;;4834520;29;20034;-81
2021/08/31 07:08:44;;;;;;;2.92;2.45;;;20.40;82.60;;;;;;4818823;29;20038;-81
2021/08/31 07:11:09;;;;;;;5.00;2.00;;;20.60;81.50;;;;;;4818754;29;20134;-81
2021/08/31 07:13:35;;;;;;;2.72;2.08;;;20.70;80.70;;;;;;4818859;29;20041;-81
2021/08/31 07:16:01;;;;;;;3.17;2.20;;;20.80;79.90;;;;;;4818836;29;20034;-81
2021/08/31 07:18:27;;;;;;;3.65;2.20;;;20.80;78.60;;;;;;4833907;29;20317;-81
2021/08/31 07:20:52;;;;;;;3.53;2.30;;;20.90;79.30;;;;;;4818695;29;20264;-81
2021/08/31 07:23:18;;;;;;;3.15;2.13;;;20.80;78.40;;;;;;4833619;29;20065;-81
2021/08/31 07:25:46;;;;;;;4.75;2.72;;;20.90;78.40;;;;;;4835459;29;20033;-80
2021/08/31 07:28:12;;;;;;;3.75;2.60;;;20.90;78.40;;;;;;4829292;29;20042;-80
2021/08/31 07:30:38;;;;;;;3.50;2.58;;;20.80;78.10;;;;;;4816793;29;20039;-81
2021/08/31 07:33:06;;;;;;;2.38;2.17;;;20.80;78.40;;;;;;4818246;29;20087;-80
2021/08/31 07:35:33;;;;;;;3.30;2.45;;;20.80;78.80;;;;;;4818211;29;20156;-79
2021/08/31 07:37:59;;;;;;;2.90;2.50;;;20.70;79.20;;;;;;4817160;29;20039;-81
2021/08/31 07:40:25;;;;;;;3.05;2.47;;;20.70;80.00;;;;;;4818308;29;20046;-80
2021/08/31 07:42:52;;;;;;;2.97;2.53;;;20.70;79.90;;;;;;4817235;29;20026;-80
2021/08/31 07:45:19;;;;;;;4.47;3.22;;;20.70;80.20;;;;;;4816859;29;20242;-80
2021/08/31 07:47:45;;;;;;;5.47;2.53;;;20.60;80.50;;;;;;4817882;29;20038;-80
2021/08/31 07:50:11;;;;;;;4.72;2.70;;;20.70;81.00;;;;;;4816289;29;20061;-80
2021/08/31 07:52:38;;;;;;;2.75;2.53;;;20.90;79.20;;;;;;4828929;29;20224;-80
2021/08/31 07:55:05;;;;;;;4.53;2.85;;;20.90;78.90;;;;;;4854184;29;20030;-80
2021/08/31 07:57:31;;;;;;;2.85;2.28;;;20.90;79.50;;;;;;4831310;29;20060;-80
2021/08/31 07:59:58;;;;;;;3.08;2.15;;;21.00;79.70;;;;;;4832126;29;20226;-80
2021/08/31 08:02:23;;;;;;;4.43;2.37;;;21.10;79.20;;;;;;4832209;29;20030;-80
2021/08/31 08:04:51;;;;;;;4.63;2.50;;;21.20;78.60;;;;;;4818636;29;20353;-80
2021/08/31 08:07:17;;;;;;;3.10;2.40;;;21.20;77.70;;;;;;4818034;29;20035;-80
2021/08/31 08:09:42;;;;;;;6.18;2.60;;;21.10;78.00;;;;;;4831705;29;20234;-80
2021/08/31 08:12:10;;;;;;;6.53;2.25;;;21.10;78.50;;;;;;4817747;29;20147;-80
2021/08/31 08:14:35;;;;;;;7.28;2.05;;;21.10;78.90;;;;;;4832201;29;20330;-80
2021/08/31 08:17:01;;;;;;;5.22;2.40;;;21.10;79.00;;;;;;4845526;29;20033;-80
2021/08/31 08:19:27;;;;;;;3.20;2.72;;;21.00;79.30;;;;;;4852939;29;20037;-80
2021/08/31 08:21:53;;;;;;;4.30;2.40;;;21.10;79.50;;;;;;4853337;29;20030;-80
2021/08/31 08:24:18;;;;;;;2.75;2.47;;;21.00;79.00;;;;;;4852817;29;20057;-78
2021/08/31 08:26:44;;;;;;;2.75;2.28;;;20.80;79.50;;;;;;4852275;29;20046;-80
2021/08/31 08:29:10;;;;;;;3.30;2.75;;;20.70;81.00;;;;;;4834850;29;20093;-80
2021/08/31 08:31:36;;;;;;;5.22;2.85;;;20.70;82.30;;;;;;4819752;29;20097;-80
2021/08/31 08:34:02;;;;;;;7.38;2.90;;;20.60;82.70;;;;;;4819156;29;20039;-80
2021/08/31 08:36:28;;;;;;;5.47;2.60;;;20.50;82.10;;;;;;4834953;29;20027;-80
2021/08/31 08:38:54;;;;;;;3.10;2.80;;;20.40;82.80;;;;;;4820457;29;20051;-80
2021/08/31 08:41:20;;;;;;;5.35;2.50;;;20.60;83.10;;;;;;4820110;29;20065;-80
2021/08/31 08:43:46;;;;;;;6.87;2.60;;;20.60;82.30;;;;;;4834585;29;20052;-80
2021/08/31 08:46:12;;;;;;;3.45;2.80;;;20.70;82.50;;;;;;4834306;29;20055;-80
2021/08/31 08:48:38;;;;;;;6.23;3.33;;;20.90;82.40;;;;;;4833874;29;20038;-80
2021/08/31 08:51:05;;;;;;;3.47;2.72;;;20.90;82.00;;;;;;4816776;29;20058;-80
2021/08/31 08:53:34;;;;;;;7.18;3.10;;;21.00;82.20;;;;;;4831939;29;20034;-80
2021/08/31 08:56:01;;;;;;;6.88;3.00;;;20.90;82.90;;;;;;4819086;29;20031;-80
2021/08/31 08:58:26;;;;;;;;;;;20.70;82.80;;;;;;4835224;29;20111;-80
2021/08/31 09:01:03;;;;;;;3.73;3.43;;;20.50;84.50;;;;;;4824669;29;20100;-79
2021/08/31 09:03:30;;;;;;;4.00;3.60;;;20.40;87.30;;;;;;4820735;29;20031;-78
2021/08/31 09:06:10;;;;;;;5.35;4.03;;;20.30;90.40;;;;;;4835261;29;20081;-78
2021/08/31 09:08:38;;;;;;;5.50;5.00;;;20.10;91.80;;;;;;4838739;29;20034;-78
2021/08/31 09:11:38;;;;;;;4.90;4.40;;;20.10;92.50;;;;;;4838408;29;20098;-79
2021/08/31 09:14:29;;;;;;;7.15;5.30;;;20.10;93.20;;;;;;4769053;30;20036;-78
2021/08/31 09:16:57;;;;;;;6.25;4.50;;;20.10;93.50;;;;;;4784188;30;20055;-78
2021/08/31 09:19:36;;;;;;;5.80;5.20;;;20.10;93.20;;;;;;4769183;30;20128;-78
2021/08/31 09:22:22;;;;;;;7.53;5.82;;;20.10;93.40;;;;;;4783971;30;20036;-79
2021/08/31 09:25:09;;;;;;;6.60;5.25;;;20.00;93.60;;;;;;4769700;30;20072;-78
2021/08/31 09:27:35;;;;;;;;;;;19.80;94.30;;;;;;4788945;30;20050;-78
2021/08/31 09:30:19;;;;;;;;;;;19.80;94.40;;;;;;4769564;30;19909;-78
2021/08/31 09:33:08;;;;;;;5.90;5.25;;;19.70;95.00;;;;;;4769596;30;19922;-79
2021/08/31 09:35:42;;;;;;;9.75;5.68;;;19.70;95.00;;;;;;4769462;30;20361;-78
2021/08/31 09:38:13;;;;;;;7.55;6.15;;;19.70;95.20;;;;;;4768560;30;20310;-81
2021/08/31 09:40:42;;;;;;;6.30;5.07;;;19.70;95.80;;;;;;4767686;30;20065;-78
2021/08/31 09:43:12;;;;;;;6.35;4.90;;;19.50;95.40;;;;;;4768410;30;20070;-78
2021/08/31 09:45:40;;;;;;;7.18;4.97;;;19.30;95.90;;;;;;4767623;30;20097;-78
2021/08/31 09:48:09;;;;;;;6.90;5.75;;;19.10;96.10;;;;;;4776814;30;20062;-78
2021/08/31 09:50:45;;;;;;;6.15;5.35;;;19.10;96.50;;;;;;4858563;29;20353;-78
2021/08/31 09:53:19;;;;;;;7.25;5.70;;;19.00;96.90;;;;;;4822079;29;20034;-78
2021/08/31 09:55:51;;;;;;;7.57;4.72;;;18.90;97.10;;;;;;4822056;29;20042;-78
2021/08/31 09:58:24;;;;;;;6.90;5.15;;;18.90;97.50;;;;;;4822915;29;20027;-77
2021/08/31 10:00:53;;;;;;;6.95;5.90;;;18.90;97.60;;;;;;4818864;29;20214;-78
2021/08/31 10:03:20;;;;;;;6.32;5.55;;;18.90;97.70;;;;;;4818011;29;20031;-79
2021/08/31 10:05:47;;;;;;;6.95;5.10;;;18.80;97.80;;;;;;4818676;29;20330;-78
2021/08/31 10:08:15;;;;;;;5.97;3.92;;;18.90;98.10;;;;;;4835229;29;20101;-78
2021/08/31 10:10:41;;;;;;;;;;;18.90;97.90;;;;;;4836343;29;20030;-78
2021/08/31 10:13:13;;;;;;;6.40;3.90;;;18.70;97.90;;;;;;4837504;29;20018;-79
2021/08/31 10:15:46;;;;;;;3.92;3.53;;;18.70;98.20;;;;;;4832594;29;20318;-79
2021/08/31 10:18:14;;;;;;;4.72;3.53;;;18.70;98.30;;;;;;4832650;29;20034;-78
2021/08/31 10:20:58;;;;;;;4.45;2.97;;;18.60;98.30;;;;;;4833109;29;20027;-78
2021/08/31 10:23:31;;;;;;;4.85;3.58;;;18.50;98.30;;;;;;4836060;29;20107;-78
2021/08/31 10:26:22;;;;;;;7.53;3.95;;;18.50;98.20;;;;;;4820836;29;20030;-78
2021/08/31 10:28:50;;;;;;;4.22;3.53;;;18.50;98.80;;;;;;4853243;29;20041;-78
2021/08/31 10:31:43;;;;;;;4.50;3.92;;;18.50;98.20;;;;;;4840247;29;20029;-78
2021/08/31 10:34:30;;;;;;;8.15;3.95;;;18.60;98.20;;;;;;4778614;30;20053;-78
2021/08/31 10:36:59;;;;;;;5.50;4.00;;;18.70;98.10;;;;;;4781820;30;20046;-79
2021/08/31 10:39:51;;;;;;;4.78;3.88;;;18.80;98.10;;;;;;4782325;30;20075;-78
2021/08/31 10:42:29;;;;;;;5.07;4.03;;;19.00;98.10;;;;;;4777967;30;20039;-78
2021/08/31 10:45:24;;;;;;;6.65;4.60;;;19.10;97.30;;;;;;4778888;30;20055;-78
2021/08/31 10:47:51;;;;;;;7.40;4.75;;;19.20;97.20;;;;;;4763917;30;20158;-78
2021/08/31 10:50:27;;;;;;;5.10;4.37;;;19.20;96.10;;;;;;4766547;30;20250;-78
2021/08/31 10:53:01;;;;;;;4.65;4.07;;;19.40;96.70;;;;;;4781536;30;20303;-78
2021/08/31 10:55:27;;;;;;;5.28;3.55;;;19.60;96.20;;;;;;4765840;30;20043;-78
2021/08/31 10:57:54;;;;;;;6.15;4.47;;;19.80;95.30;;;;;;4766193;30;20047;-78
2021/08/31 11:00:19;;;;;;;7.25;4.47;;;19.90;94.90;;;;;;4769314;30;20042;-78
2021/08/31 11:02:51;;;;;;;5.00;4.47;;;20.10;95.10;;;;;;4765322;30;20597;-77
2021/08/31 11:05:24;;;;;;;7.72;4.93;;;20.30;94.60;;;;;;4751575;30;20040;-78
2021/08/31 11:07:49;;;;;;;6.95;4.75;;;20.30;93.30;;;;;;4765991;30;20077;-78
2021/08/31 11:10:23;;;;;;;7.68;5.32;;;20.40;93.40;;;;;;4794230;29;20259;-78
2021/08/31 11:12:49;;;;;;;5.72;4.95;;;20.60;92.90;;;;;;4818367;29;20038;-79
2021/08/31 11:15:25;;;;;;;8.07;5.65;;;20.60;92.20;;;;;;4802462;29;20066;-78
2021/08/31 11:17:52;;;;;;;8.07;5.00;;;20.70;92.80;;;;;;4845901;29;20030;-79
2021/08/31 11:20:25;;;;;;;6.53;5.28;;;20.80;92.40;;;;;;4830300;29;20038;-79
2021/08/31 11:22:54;;;;;;;5.97;5.00;;;20.70;92.40;;;;;;4835458;29;20030;-79
2021/08/31 11:25:34;;;;;;;4.32;3.92;;;20.70;92.00;;;;;;4843679;29;20068;-77
2021/08/31 11:28:31;;;;;;;6.55;4.07;;;20.80;91.10;;;;;;4846726;29;20030;-79
2021/08/31 11:31:00;;;;;;;5.53;4.43;;;20.70;91.10;;;;;;4782547;30;20039;-80
2021/08/31 11:33:31;;;;;;;6.93;4.93;;;20.70;90.70;;;;;;4782834;30;20137;-80
2021/08/31 11:36:01;;;;;;;6.30;4.50;;;20.70;90.90;;;;;;4798520;30;20051;-79
2021/08/31 11:38:47;;;;;;;7.25;4.32;;;20.60;90.90;;;;;;4797471;30;20031;-80
2021/08/31 11:41:23;;;;;;;5.95;4.47;;;20.70;91.00;;;;;;4782970;30;20039;-80
2021/08/31 11:43:55;;;;;;;5.22;4.63;;;20.70;90.60;;;;;;4798058;30;20027;-79
2021/08/31 11:46:26;;;;;;;5.70;4.78;;;20.70;90.70;;;;;;4802333;29;20252;-80
2021/08/31 11:49:25;;;;;;;8.70;5.38;;;20.60;90.90;;;;;;4811899;29;20043;-80
2021/08/31 11:51:51;;;;;;;10.15;5.25;;;20.60;91.30;;;;;;4747437;30;20044;-80
2021/08/31 11:54:17;;;;;;;8.40;5.43;;;20.70;91.10;;;;;;4732385;30;20408;-80
2021/08/31 11:56:50;;;;;;;6.70;5.40;;;20.70;90.70;;;;;;4758286;30;20032;-80
2021/08/31 11:59:38;;;;;;;5.55;4.80;;;20.70;91.40;;;;;;4741966;30;20113;-80
2021/08/31 12:02:20;;;;;;;7.65;5.80;;;20.60;91.10;;;;;;4757187;30;20036;-80
2021/08/31 12:05:07;;;;;;;6.28;4.85;;;20.70;90.50;;;;;;4746984;30;20048;-80
2021/08/31 12:07:41;;;;;;;5.35;4.80;;;20.70;90.60;;;;;;4758508;30;20132;-80
2021/08/31 12:10:09;;;;;;;8.05;5.28;;;20.70;91.00;;;;;;4779362;30;20263;-80
2021/08/31 12:12:37;;;;;;;5.75;4.97;;;20.60;90.80;;;;;;4764698;30;20032;-80
2021/08/31 12:15:05;;;;;;;7.22;5.35;;;20.70;91.00;;;;;;4779471;30;20051;-80
2021/08/31 12:17:33;;;;;;;7.70;6.05;;;20.80;90.40;;;;;;4792894;30;20031;-80
2021/08/31 12:20:12;;;;;;;7.18;5.45;;;20.80;90.70;;;;;;4764257;30;20047;-80
2021/08/31 12:22:41;;;;;;;7.30;5.13;;;20.80;90.10;;;;;;4779317;30;20027;-80
2021/08/31 12:25:08;;;;;;;7.20;5.00;;;20.80;90.40;;;;;;4779287;30;20050;-80
2021/08/31 12:27:53;;;;;;;6.25;5.30;;;20.70;89.30;;;;;;4808057;29;20095;-80
2021/08/31 12:30:33;;;;;;;8.98;5.20;;;20.70;90.50;;;;;;4801984;29;20053;-80
2021/08/31 12:32:59;;;;;;;8.13;5.63;;;20.50;91.10;;;;;;4819098;29;20043;-80
2021/08/31 12:38:11;;;;;;;6.85;5.57;;;20.10;91.30;;;;;;4828162;29;20046;-81
2021/08/31 12:40:50;;;;;;;9.27;5.40;;;20.10;91.40;;;;;;4822228;29;20041;-81
2021/08/31 12:43:16;;;;;;;9.43;5.82;;;20.00;91.70;;;;;;4823229;29;20034;-81
2021/08/31 12:45:48;;;;;;;8.02;6.07;;;20.10;91.80;;;;;;4836358;29;20061;-82
2021/08/31 12:48:15;;;;;;;12.20;5.40;;;20.30;92.00;;;;;;4820281;29;20068;-81
2021/08/31 12:50:51;;;;;;;8.38;4.88;;;20.30;90.90;;;;;;4833444;29;20042;-80
2021/08/31 12:53:17;;;;;;;10.10;5.43;;;20.20;91.10;;;;;;4804212;29;20039;-81
2021/08/31 12:56:03;;;;;;;6.20;5.07;;;20.20;91.50;;;;;;4818533;29;20042;-81
2021/08/31 12:58:30;;;;;;;6.53;4.70;;;20.60;91.80;;;;;;4819482;29;20034;-81
2021/08/31 13:01:02;;;;;;;;;;;20.90;90.00;;;;;;4819179;29;20018;-80
2021/08/31 13:03:29;;;;;;;8.45;4.38;;;21.20;89.40;;;;;;4840802;29;19909;-80
2021/08/31 13:05:55;;;;;;;6.10;4.32;;;21.40;88.30;;;;;;4855428;29;20325;-81
2021/08/31 13:08:21;;;;;;;5.28;4.30;;;21.50;86.30;;;;;;4820557;29;20023;-80
2021/08/31 13:10:47;;;;;;;9.15;5.00;;;21.60;84.70;;;;;;4809073;29;20027;-79
2021/08/31 13:13:13;;;;;;;6.18;4.60;;;21.80;83.30;;;;;;4818576;29;20329;-80
2021/08/31 13:15:38;;;;;;;6.22;4.68;;;21.90;83.20;;;;;;4806797;29;20026;-80
2021/08/31 13:18:04;;;;;;;9.07;4.30;;;21.90;82.80;;;;;;4820565;29;20050;-80
2021/08/31 13:20:30;;;;;;;9.23;4.53;;;22.00;81.70;;;;;;4837380;29;20030;-80
2021/08/31 13:22:56;;;;;;;6.38;4.78;;;22.00;81.70;;;;;;4835853;29;20026;-80
2021/08/31 13:25:21;;;;;;;5.60;4.80;;;21.90;81.00;;;;;;4820903;29;20030;-80
2021/08/31 13:27:47;;;;;;;7.22;4.75;;;21.90;82.30;;;;;;4836911;29;20058;-80
2021/08/31 13:30:13;;;;;;;6.53;4.30;;;21.90;80.80;;;;;;4830431;29;20265;-80
2021/08/31 13:32:39;;;;;;;5.05;3.90;;;21.90;80.60;;;;;;4835468;29;20075;-80
2021/08/31 13:35:05;;;;;;;4.75;4.20;;;21.80;80.90;;;;;;4836005;29;20360;-80
2021/08/31 13:37:31;;;;;;;5.97;4.50;;;21.60;81.20;;;;;;4821308;29;20026;-80
2021/08/31 13:39:56;;;;;;;10.70;4.85;;;21.40;82.60;;;;;;4821067;29;20034;-80
2021/08/31 13:42:22;;;;;;;8.98;4.07;;;21.40;83.00;;;;;;4820548;29;20341;-80
2021/08/31 13:44:50;;;;;;;7.35;3.85;;;21.30;83.10;;;;;;4836104;29;20034;-80
2021/08/31 13:47:16;;;;;;;6.85;4.57;;;21.30;82.70;;;;;;4835085;29;20054;-79
2021/08/31 13:49:42;;;;;;;6.55;3.90;;;21.20;82.90;;;;;;4835374;29;20114;-80
2021/08/31 13:52:07;;;;;;;9.77;4.18;;;21.10;83.70;;;;;;4820012;29;20103;-80
2021/08/31 13:54:33;;;;;;;6.13;3.88;;;21.00;83.90;;;;;;4820441;29;20030;-80
2021/08/31 13:56:59;;;;;;;5.90;4.10;;;20.90;83.50;;;;;;4820159;29;20110;-80
2021/08/31 13:59:24;;;;;;;4.47;3.53;;;20.90;83.70;;;;;;4847118;29;20061;-80
2021/08/31 14:01:50;;;;;;;4.80;3.67;;;20.90;84.90;;;;;;4831167;29;20053;-80
2021/08/31 14:04:16;;;;;;;5.35;3.58;;;21.00;85.10;;;;;;4836442;29;20061;-80
2021/08/31 14:06:42;;;;;;;4.03;3.13;;;21.10;82.50;;;;;;4835269;29;20038;-80
2021/08/31 14:09:08;;;;;;;3.75;2.65;;;21.30;82.50;;;;;;4835167;29;20030;-80
2021/08/31 14:11:33;;;;;;;4.82;3.17;;;21.70;81.60;;;;;;4834864;29;20103;-80
2021/08/31 14:13:59;;;;;;;3.40;2.88;;;21.90;80.20;;;;;;4834923;29;20106;-80
2021/08/31 14:16:25;;;;;;;3.75;2.58;;;22.10;80.10;;;;;;4820083;29;20131;-80
2021/08/31 14:18:52;;;;;;;4.80;2.38;;;22.40;78.20;;;;;;4816641;29;20026;-81
2021/08/31 14:21:19;;;;;;;8.15;2.42;;;22.50;78.40;;;;;;4815232;29;20031;-80
2021/08/31 14:23:45;;;;;;;3.35;2.65;;;22.30;77.00;;;;;;4806001;29;20092;-79
2021/08/31 14:26:10;;;;;;;4.55;2.70;;;21.90;77.70;;;;;;4832297;29;20030;-80
2021/08/31 14:28:37;;;;;;;3.13;2.55;;;21.70;79.10;;;;;;4819219;29;20322;-80
2021/08/31 14:31:03;;;;;;;6.32;2.80;;;21.40;80.00;;;;;;4807158;29;20023;-80
2021/08/31 14:33:29;;;;;;;3.75;2.67;;;21.30;80.80;;;;;;4817741;29;20038;-80
2021/08/31 14:35:55;;;;;;;3.37;2.63;;;21.20;80.70;;;;;;4816217;29;20041;-80
2021/08/31 14:38:21;;;;;;;7.28;3.05;;;21.00;81.70;;;;;;4819223;29;20354;-79
2021/08/31 14:40:47;;;;;;;4.80;2.75;;;20.90;82.10;;;;;;4819305;29;20034;-79
2021/08/31 14:43:12;;;;;;;4.30;3.15;;;20.80;82.60;;;;;;4835104;29;20212;-79
2021/08/31 14:45:38;;;;;;;4.43;3.03;;;20.70;85.20;;;;;;4834723;29;20034;-79
2021/08/31 14:48:04;;;;;;;4.78;2.88;;;20.60;85.70;;;;;;4803544;29;20318;-79
2021/08/31 14:50:30;;;;;;;2.58;2.33;;;20.50;85.10;;;;;;4816442;29;20027;-79
2021/08/31 14:52:56;;;;;;;4.85;3.10;;;20.50;85.50;;;;;;4816455;29;20030;-79
2021/08/31 14:55:22;;;;;;;4.93;3.37;;;20.50;85.00;;;;;;4816875;29;20268;-79
2021/08/31 14:57:48;;;;;;;6.65;2.63;;;20.80;84.60;;;;;;4817125;29;20039;-79
2021/08/31 15:00:14;;;;;;;7.68;2.83;;;21.00;83.30;;;;;;4817193;29;20038;-79
2021/08/31 15:02:40;;;;;;;6.07;2.90;;;21.30;81.90;;;;;;4818130;29;20026;-79
2021/08/31 15:05:07;;;;;;;4.90;3.00;;;21.40;81.80;;;;;;4825461;29;20038;-80
2021/08/31 15:07:32;;;;;;;2.88;2.42;;;21.40;81.00;;;;;;4819942;29;20058;-80
2021/08/31 15:09:58;;;;;;;5.40;2.35;;;21.50;81.40;;;;;;4834974;29;20091;-79
2021/08/31 15:12:24;;;;;;;5.15;2.60;;;21.60;80.00;;;;;;4819521;29;20030;-80
2021/08/31 15:14:50;;;;;;;3.83;2.42;;;21.50;78.90;;;;;;4834975;29;20026;-80
2021/08/31 15:17:16;;;;;;;3.28;2.30;;;21.40;79.50;;;;;;4846361;29;20041;-79
2021/08/31 15:19:41;;;;;;;3.17;2.60;;;21.40;80.20;;;;;;4837420;29;20030;-80
2021/08/31 15:22:08;;;;;;;3.83;2.80;;;21.40;79.80;;;;;;4852804;29;20057;-80
2021/08/31 15:24:34;;;;;;;3.45;2.72;;;21.40;79.30;;;;;;4837862;29;20202;-80
2021/08/31 15:27:01;;;;;;;4.32;2.53;;;21.40;79.40;;;;;;4837260;29;20048;-80
2021/08/31 15:29:27;;;;;;;5.20;2.58;;;21.30;79.70;;;;;;4836582;29;20025;-80
2021/08/31 15:31:52;;;;;;;3.13;2.58;;;21.20;79.50;;;;;;4837120;29;20049;-80
2021/08/31 15:34:18;;;;;;;6.97;2.53;;;21.10;80.40;;;;;;4820044;29;20058;-80
2021/08/31 15:36:47;;;;;;;6.70;2.80;;;21.00;80.50;;;;;;4818787;29;20321;-80
2021/08/31 15:39:13;;;;;;;5.05;2.90;;;20.90;80.90;;;;;;4831104;29;20037;-80
2021/08/31 15:41:39;;;;;;;4.35;3.08;;;20.80;81.60;;;;;;4820448;29;20034;-80